createdAt,value
2023-04-22T00:02:03.000Z,85.88
2023-04-22T00:04:34.458Z,85.76
2023-04-22T00:07:03.208Z,85.44
2023-04-22T00:09:32.317Z,84.98
2023-04-22T00:12:02.735Z,84.67
2023-04-22T00:14:31.928Z,84.52
2023-04-22T00:17:01.757Z,83.90
2023-04-22T00:19:32.168Z,83.27
2023-04-22T00:22:00.550Z,82.25
2023-04-22T00:24:30.613Z,81.91
2023-04-22T00:26:59.919Z,81.18
2023-04-22T00:29:29.833Z,80.51
2023-04-22T00:31:58.134Z,80.30
2023-04-22T00:34:27.059Z,80.00
2023-04-22T00:36:55.401Z,79.78
2023-04-22T00:39:25.305Z,79.58
2023-04-22T00:41:54.892Z,79.31
2023-04-22T00:44:23.074Z,78.80
2023-04-22T00:46:51.554Z,78.15
2023-04-22T00:49:21.106Z,77.91
2023-04-22T00:51:49.671Z,77.80
2023-04-22T00:54:18.146Z,77.71
2023-04-22T00:56:47.134Z,77.18
2023-04-22T00:59:15.379Z,76.49
2023-04-22T01:01:43.631Z,76.11
2023-04-22T01:04:15.344Z,75.58
2023-04-22T01:06:46.876Z,74.99
2023-04-22T01:09:15.364Z,75.00
2023-04-22T01:11:43.630Z,74.93
2023-04-22T01:14:11.915Z,75.17
2023-04-22T01:16:41.363Z,75.09
2023-04-22T01:19:09.797Z,74.58
2023-04-22T01:21:39.920Z,74.13
2023-04-22T01:24:11.247Z,74.13
2023-04-22T01:26:39.539Z,73.82
2023-04-22T01:29:07.924Z,73.42
2023-04-22T01:31:36.585Z,73.81
2023-04-22T01:34:05.610Z,73.73
2023-04-22T01:36:34.904Z,73.95
2023-04-22T01:39:04.615Z,73.85
2023-04-22T01:41:32.891Z,73.59
2023-04-22T01:44:01.479Z,73.25
2023-04-22T01:46:36.047Z,73.16
2023-04-22T01:49:04.386Z,73.15
2023-04-22T01:51:32.931Z,73.08
2023-04-22T01:54:05.565Z,73.46
2023-04-22T01:56:34.535Z,73.58
2023-04-22T01:59:03.224Z,73.05
2023-04-22T02:01:36.656Z,72.85
2023-04-22T02:04:07.966Z,72.55
2023-04-22T02:06:36.671Z,72.52
2023-04-22T02:09:06.873Z,72.32
2023-04-22T02:11:36.997Z,72.58
2023-04-22T02:14:05.585Z,72.66
2023-04-22T02:16:35.907Z,73.13
2023-04-22T02:19:05.817Z,72.91
2023-04-22T02:21:35.023Z,72.83
2023-04-22T02:24:06.366Z,72.19
2023-04-22T02:26:36.176Z,72.09
2023-04-22T02:29:04.775Z,71.97
2023-04-22T02:31:33.596Z,71.71
2023-04-22T02:34:03.879Z,71.49
2023-04-22T02:36:32.662Z,71.77
2023-04-22T02:39:05.048Z,71.87
2023-04-22T02:41:36.248Z,71.90
2023-04-22T02:44:04.963Z,71.58
2023-04-22T02:46:34.398Z,71.04
2023-04-22T02:49:05.413Z,71.01
2023-04-22T02:51:34.308Z,70.92
2023-04-22T02:54:02.887Z,71.19
2023-04-22T02:56:34.517Z,71.14
2023-04-22T02:59:03.871Z,71.44
2023-04-22T03:01:35.754Z,71.66
2023-04-22T03:04:10.819Z,71.80
2023-04-22T03:06:42.804Z,71.49
2023-04-22T03:09:12.214Z,71.33
2023-04-22T03:11:40.795Z,71.31
2023-04-22T03:14:14.294Z,71.38
2023-04-22T03:16:42.794Z,71.22
2023-04-22T03:19:11.261Z,71.47
2023-04-22T03:21:39.740Z,71.42
2023-04-22T03:24:08.424Z,71.37
2023-04-22T03:26:37.737Z,71.12
2023-04-22T03:29:07.950Z,70.85
2023-04-22T03:31:38.056Z,70.41
2023-04-22T03:34:07.472Z,70.12
2023-04-22T03:36:36.159Z,70.23
2023-04-22T03:39:04.547Z,69.96
2023-04-22T03:41:33.634Z,69.88
2023-04-22T03:44:02.437Z,69.71
2023-04-22T03:46:33.101Z,69.75
2023-04-22T03:49:09.079Z,69.91
2023-04-22T03:51:37.507Z,70.09
2023-04-22T03:54:09.254Z,70.28
2023-04-22T03:56:40.299Z,70.47
2023-04-22T03:59:08.679Z,70.12
2023-04-22T04:01:38.072Z,69.69
2023-04-22T04:04:08.767Z,69.20
2023-04-22T04:06:41.702Z,68.76
2023-04-22T04:09:10.281Z,68.43
2023-04-22T04:11:38.573Z,68.15
2023-04-22T04:14:07.043Z,67.97
2023-04-22T04:16:47.783Z,67.52
2023-04-22T04:19:37.405Z,67.13
2023-04-22T04:22:07.198Z,66.92
2023-04-22T04:24:42.354Z,66.58
2023-04-22T04:27:21.357Z,66.42
2023-04-22T04:29:53.340Z,66.34
2023-04-22T04:32:37.072Z,66.24
2023-04-22T04:35:08.865Z,65.93
2023-04-22T04:37:41.089Z,65.88
2023-04-22T04:40:12.539Z,65.17
2023-04-22T04:43:16.564Z,64.44
2023-04-22T04:45:52.712Z,63.66
2023-04-22T04:48:28.679Z,63.19
2023-04-22T04:51:01.965Z,63.29
2023-04-22T04:53:33.112Z,63.11
2023-04-22T04:56:02.514Z,62.83
2023-04-22T04:58:32.126Z,62.69
2023-04-22T05:01:18.280Z,62.20
2023-04-22T05:03:50.205Z,62.14
2023-04-22T05:06:21.035Z,61.78
2023-04-22T05:08:53.802Z,61.92
2023-04-22T05:11:22.712Z,61.74
2023-04-22T05:13:52.227Z,61.68
2023-04-22T05:16:26.516Z,61.26
2023-04-22T05:18:55.120Z,60.81
2023-04-22T05:21:25.247Z,60.49
2023-04-22T05:23:53.719Z,60.72
2023-04-22T05:26:22.189Z,60.57
2023-04-22T05:28:50.875Z,60.11
2023-04-22T05:31:22.786Z,60.00
2023-04-22T05:33:51.016Z,59.62
2023-04-22T05:36:19.296Z,59.07
2023-04-22T05:38:50.053Z,59.04
2023-04-22T05:41:18.717Z,59.47
2023-04-22T05:43:47.188Z,59.56
2023-04-22T05:46:18.293Z,59.49
2023-04-22T05:48:50.197Z,59.00
2023-04-22T05:51:38.640Z,58.95
2023-04-22T05:54:07.540Z,58.71
2023-04-22T05:56:36.734Z,58.38
2023-04-22T05:59:05.421Z,58.48
2023-04-22T06:01:34.722Z,58.30
2023-04-22T06:04:10.689Z,58.52
2023-04-22T06:06:40.391Z,58.22
2023-04-22T06:09:08.875Z,57.68
2023-04-22T06:11:37.454Z,57.30
2023-04-22T06:14:05.832Z,57.49
2023-04-22T06:16:34.733Z,57.71
2023-04-22T06:19:09.210Z,57.60
2023-04-22T06:21:40.160Z,57.14
2023-04-22T06:24:11.543Z,56.59
2023-04-22T06:26:42.281Z,56.04
2023-04-22T06:29:19.023Z,55.72
2023-04-22T06:31:49.452Z,56.24
2023-04-22T06:34:19.286Z,55.73
2023-04-22T06:36:47.873Z,55.42
2023-04-22T06:39:17.275Z,55.21
2023-04-22T06:42:04.594Z,55.48
2023-04-22T06:44:50.590Z,54.16
2023-04-22T06:47:37.299Z,54.25
2023-04-22T06:50:16.838Z,53.99
2023-04-22T06:53:17.889Z,53.70
2023-04-22T06:55:47.182Z,53.23
2023-04-22T06:58:16.078Z,53.33
2023-04-22T07:00:44.889Z,53.95
2023-04-22T07:03:13.500Z,54.25
2023-04-22T07:05:42.234Z,53.75
2023-04-22T07:08:12.047Z,53.74
2023-04-22T07:10:41.246Z,54.05
2023-04-22T07:13:49.357Z,53.59
2023-04-22T07:16:17.625Z,53.50
2023-04-22T07:18:46.010Z,53.31
2023-04-22T07:21:14.107Z,52.87
2023-04-22T07:23:42.569Z,52.55
2023-04-22T07:26:13.146Z,52.73
2023-04-22T07:28:42.097Z,52.97
2023-04-22T07:31:10.982Z,53.07
2023-04-22T07:33:41.460Z,53.41
2023-04-22T07:36:13.576Z,52.13
2023-04-22T07:38:41.749Z,52.17
2023-04-22T07:41:10.338Z,52.39
2023-04-22T07:43:38.711Z,52.67
2023-04-22T07:46:07.649Z,52.51
2023-04-22T07:48:36.900Z,51.27
2023-04-22T07:51:05.391Z,50.50
2023-04-22T07:53:36.735Z,50.70
2023-04-22T07:56:05.527Z,51.48
2023-04-22T07:58:33.902Z,51.75
2023-04-22T08:01:04.244Z,50.59
2023-04-22T08:03:33.103Z,50.00
2023-04-22T08:06:05.392Z,50.23
2023-04-22T08:08:33.784Z,50.04
2023-04-22T08:11:01.947Z,49.30
2023-04-22T08:13:31.147Z,48.92
2023-04-22T08:16:01.114Z,48.94
2023-04-22T08:18:29.953Z,49.05
2023-04-22T08:20:58.233Z,49.21
2023-04-22T08:23:26.542Z,49.33
2023-04-22T08:25:54.992Z,49.20
2023-04-22T08:28:23.266Z,48.78
2023-04-22T08:30:51.645Z,48.96
2023-04-22T08:33:20.022Z,48.10
2023-04-22T08:35:48.399Z,47.56
2023-04-22T08:38:16.577Z,47.85
2023-04-22T08:40:44.958Z,48.47
2023-04-22T08:43:13.233Z,48.93
2023-04-22T08:45:41.515Z,49.47
2023-04-22T08:48:10.916Z,49.72
2023-04-22T08:50:40.317Z,49.60
2023-04-22T08:53:08.697Z,48.87
2023-04-22T08:55:37.083Z,48.63
2023-04-22T08:58:06.433Z,48.23
2023-04-22T09:00:39.478Z,47.40
2023-04-22T09:03:07.863Z,46.40
2023-04-22T09:05:37.948Z,45.28
2023-04-22T09:08:08.243Z,44.45
2023-04-22T09:10:39.591Z,44.27
2023-04-22T09:13:08.733Z,43.39
2023-04-22T09:15:36.882Z,42.28
2023-04-22T09:18:06.032Z,40.84
2023-04-22T09:20:34.387Z,41.20
2023-04-22T09:23:04.421Z,42.35
2023-04-22T09:25:35.467Z,42.39
2023-04-22T09:28:03.820Z,42.62
2023-04-22T09:30:38.842Z,41.51
2023-04-22T09:33:07.530Z,41.58
2023-04-22T09:35:40.415Z,41.98
2023-04-22T09:38:12.186Z,41.28
2023-04-22T09:40:46.929Z,40.56
2023-04-22T09:43:18.468Z,40.62
2023-04-22T09:45:46.953Z,40.64
2023-04-22T09:48:18.163Z,41.03
2023-04-22T09:50:48.034Z,41.23
2023-04-22T09:53:21.270Z,41.18
2023-04-22T09:55:52.859Z,42.03
2023-04-22T09:58:27.249Z,42.18
2023-04-22T10:00:59.336Z,42.42
2023-04-22T10:03:27.809Z,42.75
2023-04-22T10:05:59.407Z,42.78
2023-04-22T10:08:28.780Z,42.56
2023-04-22T10:10:57.164Z,42.53
2023-04-22T10:13:26.261Z,42.33
2023-04-22T10:15:56.715Z,41.96
2023-04-22T10:18:27.132Z,41.60
2023-04-22T10:20:56.952Z,42.08
2023-04-22T10:23:25.922Z,41.86
2023-04-22T10:25:55.047Z,41.96
2023-04-22T10:28:25.919Z,41.68
2023-04-22T10:30:55.166Z,41.94
2023-04-22T10:33:31.840Z,41.90
2023-04-22T10:36:11.874Z,41.33
2023-04-22T10:38:42.388Z,41.20
2023-04-22T10:41:15.462Z,41.08
2023-04-22T10:43:47.744Z,40.52
2023-04-22T10:46:38.609Z,40.43
2023-04-22T10:50:16.328Z,40.49
2023-04-22T10:52:51.710Z,40.42
2023-04-22T10:55:20.165Z,40.22
2023-04-22T10:57:50.005Z,40.14
2023-04-22T11:00:54.525Z,39.61
2023-04-22T11:03:30.784Z,40.11
2023-04-22T11:06:19.549Z,40.54
2023-04-22T11:08:49.087Z,41.23
2023-04-22T11:11:18.743Z,41.09
2023-04-22T11:13:52.895Z,40.58
2023-04-22T11:16:22.779Z,40.52
2023-04-22T11:18:51.394Z,40.05
2023-04-22T11:21:19.896Z,39.67
2023-04-22T11:23:53.307Z,38.91
2023-04-22T11:26:35.098Z,38.38
2023-04-22T11:29:03.730Z,36.92
2023-04-22T11:31:32.149Z,36.14
2023-04-22T11:35:58.919Z,35.49
2023-04-22T11:38:27.937Z,35.11
2023-04-22T11:40:58.073Z,34.20
2023-04-22T11:43:27.284Z,33.90
2023-04-22T11:45:57.793Z,33.29
2023-04-22T11:48:26.346Z,32.75
2023-04-22T11:51:08.927Z,32.61
2023-04-22T11:53:38.881Z,32.28
2023-04-22T11:56:08.253Z,32.11
2023-04-22T11:58:39.708Z,31.77
2023-04-22T12:01:12.742Z,31.52
2023-04-22T12:03:42.356Z,31.42
2023-04-22T12:06:15.173Z,31.23
2023-04-22T12:08:45.173Z,30.93
2023-04-22T12:11:15.196Z,30.66
2023-04-22T12:13:51.590Z,30.38
2023-04-22T12:16:20.259Z,29.91
2023-04-22T12:18:55.296Z,29.56
2023-04-22T12:21:25.101Z,29.53
2023-04-22T12:23:58.040Z,29.26
2023-04-22T12:26:29.842Z,29.06
2023-04-22T12:29:04.141Z,28.00
2023-04-22T12:31:35.024Z,28.07
2023-04-22T12:34:07.394Z,28.28
2023-04-22T12:36:35.670Z,27.99
2023-04-22T12:39:06.940Z,28.24
2023-04-22T12:41:38.155Z,28.37
2023-04-22T12:44:06.855Z,28.81
2023-04-22T12:46:36.305Z,28.62
2023-04-22T12:49:05.865Z,27.51
2023-04-22T12:51:35.099Z,27.12
2023-04-22T12:54:03.365Z,27.01
2023-04-22T12:56:33.078Z,26.47
2023-04-22T12:59:03.606Z,25.93
2023-04-22T13:01:33.921Z,25.58
2023-04-22T13:04:04.321Z,25.40
2023-04-22T13:06:33.132Z,26.02
2023-04-22T13:09:01.592Z,25.68
2023-04-22T13:11:32.048Z,25.67
2023-04-22T13:14:00.593Z,25.38
2023-04-22T13:16:29.430Z,26.56
2023-04-22T13:34:52.828Z,25.73
2023-04-22T13:37:21.760Z,24.85
2023-04-22T13:39:50.164Z,23.93
2023-04-22T13:42:18.795Z,23.30
2023-04-22T13:44:47.679Z,22.86
2023-04-22T13:47:15.759Z,22.15
2023-04-22T13:49:44.291Z,21.96
2023-04-22T13:52:12.597Z,22.19
2023-04-22T13:54:42.857Z,22.44
2023-04-22T13:57:12.647Z,22.45
2023-04-22T13:59:41.749Z,22.64
2023-04-22T14:02:10.728Z,22.78
2023-04-22T14:04:38.967Z,22.36
2023-04-22T14:07:07.264Z,22.72
2023-04-22T14:09:35.692Z,22.83
2023-04-22T14:12:04.890Z,23.36
2023-04-22T14:14:35.225Z,23.94
2023-04-22T14:17:04.513Z,24.16
2023-04-22T14:19:33.967Z,24.12
2023-04-22T14:22:02.695Z,24.19
2023-04-22T14:24:31.218Z,23.66
2023-04-22T14:27:00.074Z,23.67
2023-04-22T14:29:30.598Z,23.07
2023-04-22T14:32:00.049Z,22.72
2023-04-22T14:34:28.405Z,22.81
2023-04-22T14:36:56.624Z,23.00
2023-04-22T14:39:24.964Z,22.48
2023-04-22T14:41:53.814Z,22.50
2023-04-22T14:44:22.151Z,22.22
2023-04-22T14:46:50.471Z,22.39
2023-04-22T14:49:18.767Z,22.72
2023-04-22T14:51:48.853Z,23.05
2023-04-22T14:54:17.297Z,23.89
2023-04-22T14:56:45.447Z,24.75
2023-04-22T14:59:16.093Z,25.53
2023-04-22T15:01:44.442Z,26.08
2023-04-22T15:04:14.974Z,27.12
2023-04-22T15:06:43.213Z,27.58
2023-04-22T15:09:11.654Z,27.88
2023-04-22T15:11:39.781Z,28.21
2023-04-22T15:14:08.035Z,28.81
2023-04-22T15:16:37.098Z,29.12
2023-04-22T15:19:05.607Z,29.50
2023-04-22T15:21:33.984Z,29.80
2023-04-22T15:24:02.325Z,30.46
2023-04-22T15:26:31.083Z,30.78
2023-04-22T15:29:00.446Z,30.88
2023-04-22T15:31:28.713Z,31.11
2023-04-22T15:33:56.949Z,31.06
2023-04-22T15:36:25.645Z,31.16
2023-04-22T15:38:56.309Z,31.16
2023-04-22T15:41:24.637Z,31.20
2023-04-22T15:43:53.211Z,31.07
2023-04-22T15:46:21.824Z,31.06
2023-04-22T15:48:50.647Z,31.28
2023-04-22T15:51:19.335Z,31.59
2023-04-22T15:53:48.389Z,32.33
2023-04-22T15:56:16.846Z,32.63
2023-04-22T15:58:45.386Z,33.60
2023-04-22T16:01:19.232Z,33.85
2023-04-22T16:03:49.108Z,34.50
2023-04-22T16:06:18.741Z,35.00
2023-04-22T16:08:56.629Z,35.09
2023-04-22T16:11:26.442Z,35.54
2023-04-22T16:13:54.713Z,35.59
2023-04-22T16:16:26.604Z,35.83
2023-04-22T16:18:58.022Z,36.31
2023-04-22T16:21:26.653Z,36.97
2023-04-22T16:23:55.588Z,38.22
2023-04-22T16:26:23.791Z,39.04
2023-04-22T16:28:52.265Z,40.11
2023-04-22T16:31:23.191Z,40.44
2023-04-22T16:33:51.986Z,40.31
2023-04-22T16:36:20.274Z,41.03
2023-04-22T16:38:49.076Z,40.79
2023-04-22T16:41:17.358Z,40.69
2023-04-22T16:43:46.035Z,40.85
2023-04-22T16:46:14.828Z,41.66
2023-04-22T16:48:46.170Z,42.71
2023-04-22T16:51:14.929Z,43.59
2023-04-22T16:53:49.081Z,44.57
2023-04-22T16:56:17.766Z,45.64
2023-04-22T16:58:46.135Z,46.52
2023-04-22T17:01:14.801Z,47.44
2023-04-22T17:03:43.320Z,48.20
2023-04-22T17:06:15.776Z,48.73
2023-04-22T17:08:44.262Z,48.90
2023-04-22T17:11:12.648Z,49.14
2023-04-22T17:13:43.914Z,49.47
2023-04-22T17:16:12.652Z,49.69
2023-04-22T17:18:43.830Z,50.25
2023-04-22T17:21:12.201Z,50.70
2023-04-22T17:23:43.353Z,50.15
2023-04-22T17:26:11.935Z,49.72
2023-04-22T17:28:40.314Z,49.68
2023-04-22T17:31:08.741Z,49.37
2023-04-22T17:33:37.703Z,49.12
2023-04-22T17:36:07.220Z,50.02
2023-04-22T17:38:38.635Z,50.36
2023-04-22T17:41:07.541Z,50.46
2023-04-22T17:43:36.181Z,50.59
2023-04-22T17:46:04.491Z,50.40
2023-04-22T17:48:33.396Z,50.56
2023-04-22T17:51:05.256Z,50.59
2023-04-22T17:53:42.972Z,50.56
2023-04-22T17:56:23.621Z,50.57
2023-04-22T17:58:51.992Z,50.59
2023-04-22T18:01:20.726Z,50.66
2023-04-22T18:03:50.138Z,51.00
2023-04-22T18:06:21.555Z,51.41
2023-04-22T18:08:50.011Z,51.90
2023-04-22T18:11:19.025Z,52.23
2023-04-22T18:13:47.473Z,52.45
2023-04-22T18:16:15.876Z,52.41
2023-04-22T18:18:44.303Z,52.52
2023-04-22T18:21:12.506Z,52.83
2023-04-22T18:23:40.881Z,53.06
2023-04-22T18:26:12.558Z,53.23
2023-04-22T18:28:43.708Z,53.73
2023-04-22T18:31:11.979Z,54.11
2023-04-22T18:33:43.337Z,54.67
2023-04-22T18:36:12.428Z,54.86
2023-04-22T18:38:42.237Z,54.92
2023-04-22T18:41:13.684Z,55.46
2023-04-22T18:43:42.886Z,55.74
2023-04-22T18:46:11.145Z,56.11
2023-04-22T18:48:41.792Z,56.58
2023-04-22T18:51:10.276Z,57.05
2023-04-22T18:53:38.856Z,57.58
2023-04-22T18:56:08.363Z,57.92
2023-04-22T18:58:37.130Z,58.39
2023-04-22T19:01:06.857Z,58.86
2023-04-22T19:03:35.945Z,59.07
2023-04-22T19:06:04.544Z,59.03
2023-04-22T19:08:33.229Z,59.26
2023-04-22T19:11:01.608Z,59.75
2023-04-22T19:13:30.541Z,59.63
2023-04-22T19:15:59.020Z,59.95
2023-04-22T19:18:28.077Z,60.05
2023-04-22T19:20:56.370Z,60.37
2023-04-22T19:23:25.332Z,60.60
2023-04-22T19:25:53.620Z,60.44
2023-04-22T19:28:22.636Z,59.99
2023-04-22T19:30:50.993Z,59.76
2023-04-22T19:33:19.738Z,59.28
2023-04-22T19:35:48.407Z,59.07
2023-04-22T19:38:19.248Z,59.17
2023-04-22T19:40:47.787Z,59.25
2023-04-22T20:09:34.423Z,55.61
2023-04-22T20:12:05.504Z,55.39
2023-04-22T20:14:33.744Z,55.45
2023-04-22T20:17:02.838Z,55.21
2023-04-22T20:19:31.918Z,55.28
2023-04-22T20:22:00.426Z,55.48
2023-04-22T20:24:29.737Z,55.44
2023-04-22T20:26:59.634Z,54.96
2023-04-22T20:29:30.937Z,53.94
2023-04-22T20:32:00.106Z,53.60
2023-04-22T20:34:30.634Z,53.36
2023-04-22T20:37:02.864Z,53.20
2023-04-22T20:39:31.359Z,52.37
2023-04-22T20:41:59.689Z,52.17
2023-04-22T20:44:29.242Z,52.13
2023-04-22T20:46:59.175Z,51.73
2023-04-22T20:49:27.952Z,52.03
2023-04-22T20:51:57.660Z,52.13
2023-04-22T20:54:29.340Z,51.83
2023-04-22T20:56:57.978Z,51.04
2023-04-22T20:59:26.949Z,51.14
2023-04-22T21:01:56.017Z,51.63
2023-04-22T21:04:25.551Z,51.59
2023-04-22T21:06:55.547Z,51.76
2023-04-22T21:09:26.273Z,51.62
2023-04-22T21:11:54.893Z,51.64
2023-04-22T21:14:26.437Z,51.52
2023-04-22T21:17:05.209Z,52.37
2023-04-22T21:19:34.483Z,53.40
2023-04-22T21:22:05.277Z,53.87
2023-04-22T21:24:36.006Z,54.36
2023-04-22T21:27:04.642Z,55.03
2023-04-22T21:29:33.547Z,55.41
2023-04-22T21:32:09.452Z,55.89
2023-04-22T21:34:38.373Z,56.22
2023-04-22T21:37:07.379Z,56.54
2023-04-22T21:39:36.022Z,57.11
2023-04-22T21:42:08.638Z,57.16
2023-04-22T21:44:37.681Z,57.01
2023-04-22T21:47:07.032Z,57.69
2023-04-22T21:49:36.092Z,57.43
2023-04-22T21:52:04.174Z,57.01
2023-04-22T21:54:32.661Z,57.39
2023-04-22T21:57:01.643Z,57.61
2023-04-22T21:59:30.291Z,58.39
2023-04-22T22:01:58.641Z,58.26
2023-04-22T22:04:27.147Z,57.16
2023-04-22T22:06:55.841Z,56.16
2023-04-22T22:09:24.012Z,55.88
2023-04-22T22:11:52.495Z,55.27
2023-04-22T22:14:20.980Z,54.90
2023-04-22T22:16:50.093Z,54.68
2023-04-22T22:19:18.763Z,54.09
2023-04-22T22:21:46.904Z,54.15
2023-04-22T22:24:15.443Z,53.92
2023-04-22T22:26:45.976Z,53.72
2023-04-22T22:29:15.693Z,53.42
2023-04-22T22:31:47.659Z,53.16
2023-04-22T22:34:15.870Z,53.20
2023-04-22T22:36:44.165Z,53.33
2023-04-22T22:39:14.575Z,53.63
2023-04-22T22:41:45.668Z,53.64
2023-04-22T22:44:13.972Z,53.99
2023-04-22T22:46:42.312Z,54.50
2023-04-22T22:49:11.078Z,54.20
2023-04-22T22:51:39.522Z,54.04
2023-04-22T22:54:17.286Z,53.74
2023-04-22T22:56:46.171Z,53.46
2023-04-22T22:59:19.578Z,53.28
2023-04-22T23:01:47.939Z,53.12
2023-04-22T23:04:16.516Z,53.22
2023-04-22T23:06:44.979Z,53.20
2023-04-22T23:09:15.304Z,53.34
2023-04-22T23:11:43.485Z,53.39
2023-04-22T23:14:11.960Z,53.50
2023-04-22T23:16:40.286Z,53.66
2023-04-22T23:19:08.720Z,53.69
2023-04-22T23:21:37.407Z,54.07
2023-04-22T23:24:06.311Z,54.38
2023-04-22T23:26:35.188Z,54.07
2023-04-22T23:29:04.911Z,54.13
2023-04-22T23:31:35.906Z,55.02
2023-04-22T23:34:05.760Z,56.19
2023-04-22T23:36:36.778Z,56.73
2023-04-22T23:39:05.987Z,57.10
2023-04-22T23:41:34.774Z,57.50
2023-04-22T23:44:03.159Z,57.62
2023-04-22T23:46:31.614Z,58.10
2023-04-22T23:49:01.757Z,58.64
2023-04-22T23:51:30.243Z,59.21
2023-04-22T23:53:58.720Z,59.46
2023-04-22T23:56:28.022Z,59.51
2023-04-22T23:58:56.565Z,59.78
